Terminal Aerodrome Forecast
Issued by NWS Northern Indiana

Home | Current Version | Previous Version | Text Only | Print | Product List | Glossary Off
Versions: 1 2 3 4 5 6 7 8 9 10 11 12 13

000
FTUS43 KIWX 291800 RRA
TAFFWA
TAF
KFWA 291840Z 2919/3018 15010KT P6SM SCT120 BKN200
     FM292200 15008KT P6SM BKN070
     FM301500 21015G21KT P6SM SCT100=

USA.gov is the U.S. government's official web portal to all federal, state and local government web resources and services.